Accueil
METAR-TAF:

METAR-TAF

Aéroports :

Vérone, Italie

Aéroport de Vérone

latitude: 45-23N, longitude: 010-52E, altitude: 67 m

Observation

Le bulletin a été fait il y a 27 minutes, à 21:50 UTC
Vent 2 kt de ouest/nord-ouest
Température 8°C
Humidité 93%
Pression 1021 hPa
Visibilité: 3500 m
Nuages fragmentés à une hauteur de 6000 ft
brume

METAR: LIPX 242150Z 29002KT 3500 BR BKN060 08/07 Q1021

Heure: 23:17 (22:17 UTC)

Prévision

Le bulletin a été fait il y a 2 heures et 17 minutes, à 20:00 UTC
Prévision valable du 24 à 21 UTC au 25 à 06 UTC
Vent 5 kt de direction variable
Visibilité: 3500 m
Nuages fragmentés à une hauteur de 5000 ft
brume
Evoluant progressivement
du 24 à 22 UTC au 24 à 24 UTC
Visibilité: 2000 m
Nuages fragmentés à une hauteur de 1000 ft
Nuages fragmentés à une hauteur de 3000 ft
bruine

TAF: LIPX 242000Z 2421/2506 VRB05KT 3500 BR BKN050 BECMG 2422/2424 2000 DZ BKN010 BKN030

Observations et prévisions météorologiques de plus de 4000 aéroports (messages METAR et TAF).

Les stations disponibles sont représentées par des disques jaunes et rouges sur la carte.

Passer la souris dessus pour voir le nom de la station.

Cliquer dessus pour voir les observations et prévisions météorologiques.

Pour changer de carte: cliquez sur les boutons verts avec une croix noire pour zoomer, sur le bouton vert avec un tiret pour effectuer un zoom arrière, ou sur les flèches vertes pour les cartes adjacentes.


METAR-TAF: